sensor_id;sensor_type;location;lat;lon;timestamp;P1;durP1;ratioP1;P2;durP2;ratioP2
49566;SDS011;35472;50.514;30.448;2024-03-29T00:00:12;9.05;;;4.93;;
49566;SDS011;35472;50.514;30.448;2024-03-29T00:02:38;7.18;;;4.30;;
49566;SDS011;35472;50.514;30.448;2024-03-29T00:05:06;10.30;;;4.47;;
49566;SDS011;35472;50.514;30.448;2024-03-29T00:07:32;9.63;;;5.00;;
49566;SDS011;35472;50.514;30.448;2024-03-29T00:09:57;12.25;;;4.97;;
49566;SDS011;35472;50.514;30.448;2024-03-29T00:12:23;9.63;;;5.13;;
49566;SDS011;35472;50.514;30.448;2024-03-29T00:14:48;10.07;;;5.40;;
49566;SDS011;35472;50.514;30.448;2024-03-29T00:17:14;10.95;;;5.32;;
49566;SDS011;35472;50.514;30.448;2024-03-29T00:19:40;11.35;;;5.90;;
49566;SDS011;35472;50.514;30.448;2024-03-29T00:22:05;9.32;;;4.93;;
49566;SDS011;35472;50.514;30.448;2024-03-29T00:24:31;14.32;;;5.90;;
49566;SDS011;35472;50.514;30.448;2024-03-29T00:26:58;8.95;;;5.30;;
49566;SDS011;35472;50.514;30.448;2024-03-29T00:29:23;10.32;;;6.10;;
49566;SDS011;35472;50.514;30.448;2024-03-29T00:31:48;8.05;;;4.53;;
49566;SDS011;35472;50.514;30.448;2024-03-29T00:34:14;8.45;;;4.80;;
49566;SDS011;35472;50.514;30.448;2024-03-29T00:36:39;8.70;;;4.88;;
49566;SDS011;35472;50.514;30.448;2024-03-29T00:39:08;11.60;;;4.88;;
49566;SDS011;35472;50.514;30.448;2024-03-29T00:41:36;9.55;;;4.85;;
49566;SDS011;35472;50.514;30.448;2024-03-29T00:44:02;10.73;;;5.38;;
49566;SDS011;35472;50.514;30.448;2024-03-29T00:46:28;11.65;;;5.25;;
49566;SDS011;35472;50.514;30.448;2024-03-29T00:48:53;7.00;;;5.53;;
49566;SDS011;35472;50.514;30.448;2024-03-29T00:51:19;13.60;;;5.97;;
49566;SDS011;35472;50.514;30.448;2024-03-29T00:53:44;7.22;;;4.30;;
49566;SDS011;35472;50.514;30.448;2024-03-29T00:56:15;10.32;;;4.70;;
49566;SDS011;35472;50.514;30.448;2024-03-29T00:58:40;8.02;;;4.75;;
49566;SDS011;35472;50.514;30.448;2024-03-29T01:01:05;10.48;;;4.63;;
49566;SDS011;35472;50.514;30.448;2024-03-29T01:03:31;7.93;;;4.75;;
49566;SDS011;35472;50.514;30.448;2024-03-29T01:05:57;8.45;;;4.65;;
49566;SDS011;35472;50.514;30.448;2024-03-29T01:08:22;7.03;;;5.28;;
49566;SDS011;35472;50.514;30.448;2024-03-29T01:10:48;19.80;;;6.20;;
49566;SDS011;35472;50.514;30.448;2024-03-29T01:13:14;6.85;;;4.82;;
49566;SDS011;35472;50.514;30.448;2024-03-29T01:15:40;10.20;;;4.65;;
49566;SDS011;35472;50.514;30.448;2024-03-29T01:18:05;8.82;;;4.35;;
49566;SDS011;35472;50.514;30.448;2024-03-29T01:20:30;7.68;;;4.60;;
49566;SDS011;35472;50.514;30.448;2024-03-29T01:22:56;8.88;;;4.15;;
49566;SDS011;35472;50.514;30.448;2024-03-29T01:25:21;9.10;;;5.25;;
49566;SDS011;35472;50.514;30.448;2024-03-29T01:27:46;10.50;;;3.88;;
49566;SDS011;35472;50.514;30.448;2024-03-29T01:30:14;8.40;;;4.90;;
49566;SDS011;35472;50.514;30.448;2024-03-29T01:32:39;7.10;;;3.72;;
49566;SDS011;35472;50.514;30.448;2024-03-29T01:35:05;9.80;;;4.00;;
49566;SDS011;35472;50.514;30.448;2024-03-29T01:37:30;7.47;;;4.00;;
49566;SDS011;35472;50.514;30.448;2024-03-29T01:39:56;11.68;;;4.30;;
49566;SDS011;35472;50.514;30.448;2024-03-29T01:42:21;9.60;;;4.00;;
49566;SDS011;35472;50.514;30.448;2024-03-29T01:44:47;6.82;;;3.53;;
49566;SDS011;35472;50.514;30.448;2024-03-29T01:47:12;13.20;;;3.30;;
49566;SDS011;35472;50.514;30.448;2024-03-29T01:49:38;5.38;;;2.90;;
49566;SDS011;35472;50.514;30.448;2024-03-29T01:52:04;6.90;;;3.50;;
49566;SDS011;35472;50.514;30.448;2024-03-29T01:54:31;9.27;;;4.07;;
49566;SDS011;35472;50.514;30.448;2024-03-29T01:56:56;8.55;;;4.32;;
49566;SDS011;35472;50.514;30.448;2024-03-29T01:59:22;7.25;;;4.25;;
49566;SDS011;35472;50.514;30.448;2024-03-29T02:01:48;10.75;;;4.03;;
49566;SDS011;35472;50.514;30.448;2024-03-29T02:04:14;7.65;;;3.95;;
49566;SDS011;35472;50.514;30.448;2024-03-29T02:06:39;10.60;;;3.95;;
49566;SDS011;35472;50.514;30.448;2024-03-29T02:09:05;7.72;;;4.13;;
49566;SDS011;35472;50.514;30.448;2024-03-29T02:11:34;7.10;;;3.00;;
49566;SDS011;35472;50.514;30.448;2024-03-29T02:14:00;6.30;;;3.40;;
49566;SDS011;35472;50.514;30.448;2024-03-29T02:16:25;10.75;;;3.80;;
49566;SDS011;35472;50.514;30.448;2024-03-29T02:18:51;7.28;;;3.08;;
49566;SDS011;35472;50.514;30.448;2024-03-29T02:21:18;6.75;;;3.25;;
49566;SDS011;35472;50.514;30.448;2024-03-29T02:23:44;6.13;;;3.00;;
49566;SDS011;35472;50.514;30.448;2024-03-29T02:26:11;10.38;;;3.75;;
49566;SDS011;35472;50.514;30.448;2024-03-29T02:28:37;5.32;;;3.10;;
49566;SDS011;35472;50.514;30.448;2024-03-29T02:31:02;6.78;;;2.70;;
49566;SDS011;35472;50.514;30.448;2024-03-29T02:33:28;7.30;;;3.47;;
49566;SDS011;35472;50.514;30.448;2024-03-29T02:35:53;9.23;;;3.47;;
49566;SDS011;35472;50.514;30.448;2024-03-29T02:38:22;8.63;;;4.70;;
49566;SDS011;35472;50.514;30.448;2024-03-29T02:40:47;9.05;;;3.63;;
49566;SDS011;35472;50.514;30.448;2024-03-29T02:43:12;7.03;;;3.85;;
49566;SDS011;35472;50.514;30.448;2024-03-29T02:45:38;6.32;;;3.17;;
49566;SDS011;35472;50.514;30.448;2024-03-29T02:48:04;5.60;;;3.08;;
49566;SDS011;35472;50.514;30.448;2024-03-29T02:50:30;8.15;;;3.90;;
49566;SDS011;35472;50.514;30.448;2024-03-29T02:52:55;7.50;;;3.63;;
49566;SDS011;35472;50.514;30.448;2024-03-29T02:55:21;8.45;;;3.38;;
49566;SDS011;35472;50.514;30.448;2024-03-29T02:57:46;5.05;;;3.63;;
49566;SDS011;35472;50.514;30.448;2024-03-29T03:00:11;6.55;;;3.25;;
49566;SDS011;35472;50.514;30.448;2024-03-29T03:02:40;8.02;;;3.70;;
49566;SDS011;35472;50.514;30.448;2024-03-29T03:05:08;9.63;;;3.92;;
49566;SDS011;35472;50.514;30.448;2024-03-29T03:07:34;8.55;;;5.05;;
49566;SDS011;35472;50.514;30.448;2024-03-29T03:10:18;9.98;;;3.30;;
49566;SDS011;35472;50.514;30.448;2024-03-29T03:13:02;7.95;;;3.80;;
49566;SDS011;35472;50.514;30.448;2024-03-29T03:15:27;7.28;;;4.25;;
49566;SDS011;35472;50.514;30.448;2024-03-29T03:17:53;7.40;;;3.92;;
49566;SDS011;35472;50.514;30.448;2024-03-29T03:20:18;8.20;;;3.55;;
49566;SDS011;35472;50.514;30.448;2024-03-29T03:22:44;7.25;;;4.25;;
49566;SDS011;35472;50.514;30.448;2024-03-29T03:25:09;9.02;;;4.15;;
49566;SDS011;35472;50.514;30.448;2024-03-29T03:27:35;8.55;;;4.13;;
49566;SDS011;35472;50.514;30.448;2024-03-29T03:30:00;8.73;;;3.50;;
49566;SDS011;35472;50.514;30.448;2024-03-29T03:32:26;8.57;;;3.90;;
49566;SDS011;35472;50.514;30.448;2024-03-29T03:34:51;5.03;;;3.80;;
49566;SDS011;35472;50.514;30.448;2024-03-29T03:37:16;8.23;;;4.22;;
49566;SDS011;35472;50.514;30.448;2024-03-29T03:39:42;8.32;;;5.30;;
49566;SDS011;35472;50.514;30.448;2024-03-29T03:42:07;6.47;;;3.38;;
49566;SDS011;35472;50.514;30.448;2024-03-29T03:44:32;9.80;;;4.55;;
49566;SDS011;35472;50.514;30.448;2024-03-29T03:46:58;14.30;;;3.63;;
49566;SDS011;35472;50.514;30.448;2024-03-29T03:49:23;6.97;;;3.70;;
49566;SDS011;35472;50.514;30.448;2024-03-29T03:51:48;7.72;;;4.28;;
49566;SDS011;35472;50.514;30.448;2024-03-29T03:54:14;7.75;;;4.25;;
49566;SDS011;35472;50.514;30.448;2024-03-29T03:56:39;9.88;;;4.68;;
49566;SDS011;35472;50.514;30.448;2024-03-29T03:59:05;9.32;;;3.88;;
49566;SDS011;35472;50.514;30.448;2024-03-29T04:01:30;5.80;;;3.53;;
49566;SDS011;35472;50.514;30.448;2024-03-29T04:03:56;6.78;;;4.38;;
49566;SDS011;35472;50.514;30.448;2024-03-29T04:06:21;8.70;;;4.47;;
49566;SDS011;35472;50.514;30.448;2024-03-29T04:08:48;6.50;;;4.22;;
49566;SDS011;35472;50.514;30.448;2024-03-29T04:11:14;8.77;;;3.75;;
49566;SDS011;35472;50.514;30.448;2024-03-29T04:13:41;6.65;;;4.55;;
49566;SDS011;35472;50.514;30.448;2024-03-29T04:16:07;7.40;;;4.00;;
49566;SDS011;35472;50.514;30.448;2024-03-29T04:18:33;11.02;;;4.43;;
49566;SDS011;35472;50.514;30.448;2024-03-29T04:20:59;9.45;;;4.72;;
49566;SDS011;35472;50.514;30.448;2024-03-29T04:23:28;7.53;;;4.57;;
49566;SDS011;35472;50.514;30.448;2024-03-29T04:25:54;6.63;;;4.38;;
49566;SDS011;35472;50.514;30.448;2024-03-29T04:28:22;9.50;;;4.95;;
49566;SDS011;35472;50.514;30.448;2024-03-29T04:30:54;7.63;;;4.53;;
49566;SDS011;35472;50.514;30.448;2024-03-29T04:33:21;12.52;;;5.63;;
49566;SDS011;35472;50.514;30.448;2024-03-29T04:35:56;6.80;;;4.38;;
49566;SDS011;35472;50.514;30.448;2024-03-29T04:38:23;14.52;;;6.78;;
49566;SDS011;35472;50.514;30.448;2024-03-29T04:40:50;7.43;;;4.55;;
49566;SDS011;35472;50.514;30.448;2024-03-29T04:43:16;9.68;;;6.10;;
49566;SDS011;35472;50.514;30.448;2024-03-29T04:45:43;8.07;;;3.80;;
49566;SDS011;35472;50.514;30.448;2024-03-29T04:48:09;7.55;;;4.45;;
49566;SDS011;35472;50.514;30.448;2024-03-29T04:50:35;10.20;;;5.28;;
49566;SDS011;35472;50.514;30.448;2024-03-29T04:53:02;8.57;;;4.45;;
49566;SDS011;35472;50.514;30.448;2024-03-29T04:55:30;7.65;;;4.05;;
49566;SDS011;35472;50.514;30.448;2024-03-29T04:57:55;7.15;;;3.65;;
49566;SDS011;35472;50.514;30.448;2024-03-29T05:00:21;9.05;;;3.97;;
49566;SDS011;35472;50.514;30.448;2024-03-29T05:02:46;7.72;;;4.15;;
49566;SDS011;35472;50.514;30.448;2024-03-29T05:05:14;4.68;;;3.42;;
49566;SDS011;35472;50.514;30.448;2024-03-29T05:07:39;5.60;;;4.43;;
49566;SDS011;35472;50.514;30.448;2024-03-29T05:10:04;8.65;;;3.63;;
49566;SDS011;35472;50.514;30.448;2024-03-29T05:12:32;8.27;;;4.18;;
49566;SDS011;35472;50.514;30.448;2024-03-29T05:14:58;8.55;;;4.28;;
49566;SDS011;35472;50.514;30.448;2024-03-29T05:17:23;9.32;;;4.30;;
49566;SDS011;35472;50.514;30.448;2024-03-29T05:19:56;9.68;;;4.00;;
49566;SDS011;35472;50.514;30.448;2024-03-29T05:22:21;8.02;;;3.75;;
49566;SDS011;35472;50.514;30.448;2024-03-29T05:24:47;9.43;;;4.18;;
49566;SDS011;35472;50.514;30.448;2024-03-29T05:27:12;10.52;;;4.03;;
49566;SDS011;35472;50.514;30.448;2024-03-29T05:29:38;7.55;;;4.68;;
49566;SDS011;35472;50.514;30.448;2024-03-29T05:32:04;8.88;;;4.90;;
49566;SDS011;35472;50.514;30.448;2024-03-29T05:34:30;10.50;;;4.85;;
49566;SDS011;35472;50.514;30.448;2024-03-29T05:36:56;10.07;;;4.35;;
49566;SDS011;35472;50.514;30.448;2024-03-29T05:39:24;10.02;;;4.40;;
49566;SDS011;35472;50.514;30.448;2024-03-29T05:41:49;8.48;;;4.35;;
49566;SDS011;35472;50.514;30.448;2024-03-29T05:44:15;7.25;;;4.13;;
49566;SDS011;35472;50.514;30.448;2024-03-29T05:46:40;7.25;;;4.00;;
49566;SDS011;35472;50.514;30.448;2024-03-29T05:49:06;8.75;;;4.38;;
49566;SDS011;35472;50.514;30.448;2024-03-29T05:51:32;11.45;;;4.57;;
49566;SDS011;35472;50.514;30.448;2024-03-29T05:53:59;10.75;;;4.57;;
49566;SDS011;35472;50.514;30.448;2024-03-29T05:56:25;7.00;;;4.13;;
49566;SDS011;35472;50.514;30.448;2024-03-29T05:58:51;7.35;;;4.82;;
49566;SDS011;35472;50.514;30.448;2024-03-29T06:01:16;8.52;;;4.32;;
49566;SDS011;35472;50.514;30.448;2024-03-29T06:03:42;7.38;;;3.85;;
49566;SDS011;35472;50.514;30.448;2024-03-29T06:06:07;11.35;;;4.75;;
49566;SDS011;35472;50.514;30.448;2024-03-29T06:08:35;10.27;;;4.55;;
49566;SDS011;35472;50.514;30.448;2024-03-29T06:11:00;7.97;;;4.85;;
49566;SDS011;35472;50.514;30.448;2024-03-29T06:13:26;9.48;;;5.10;;
49566;SDS011;35472;50.514;30.448;2024-03-29T06:16:10;10.20;;;5.77;;
49566;SDS011;35472;50.514;30.448;2024-03-29T06:18:54;11.93;;;4.80;;
49566;SDS011;35472;50.514;30.448;2024-03-29T06:21:21;18.35;;;5.32;;
49566;SDS011;35472;50.514;30.448;2024-03-29T06:23:47;8.43;;;4.88;;
49566;SDS011;35472;50.514;30.448;2024-03-29T06:26:12;6.75;;;4.30;;
49566;SDS011;35472;50.514;30.448;2024-03-29T06:28:38;8.98;;;4.03;;
49566;SDS011;35472;50.514;30.448;2024-03-29T06:31:03;16.02;;;5.55;;
49566;SDS011;35472;50.514;30.448;2024-03-29T06:33:28;11.40;;;3.75;;
49566;SDS011;35472;50.514;30.448;2024-03-29T06:35:54;6.13;;;3.03;;
49566;SDS011;35472;50.514;30.448;2024-03-29T06:38:20;9.77;;;4.03;;
49566;SDS011;35472;50.514;30.448;2024-03-29T06:40:45;8.13;;;4.20;;
49566;SDS011;35472;50.514;30.448;2024-03-29T06:43:14;4.50;;;3.10;;
49566;SDS011;35472;50.514;30.448;2024-03-29T06:45:40;6.78;;;3.53;;
49566;SDS011;35472;50.514;30.448;2024-03-29T06:48:07;9.65;;;4.03;;
49566;SDS011;35472;50.514;30.448;2024-03-29T06:50:36;8.15;;;3.72;;
49566;SDS011;35472;50.514;30.448;2024-03-29T06:53:02;9.27;;;3.80;;
49566;SDS011;35472;50.514;30.448;2024-03-29T06:55:33;5.18;;;3.85;;
49566;SDS011;35472;50.514;30.448;2024-03-29T06:57:58;10.20;;;3.25;;
49566;SDS011;35472;50.514;30.448;2024-03-29T07:00:24;8.38;;;3.85;;
49566;SDS011;35472;50.514;30.448;2024-03-29T07:02:49;6.93;;;3.65;;
49566;SDS011;35472;50.514;30.448;2024-03-29T07:05:14;8.40;;;3.33;;
49566;SDS011;35472;50.514;30.448;2024-03-29T07:07:40;8.00;;;3.42;;
49566;SDS011;35472;50.514;30.448;2024-03-29T07:10:06;5.38;;;2.97;;
49566;SDS011;35472;50.514;30.448;2024-03-29T07:12:31;8.70;;;3.63;;
49566;SDS011;35472;50.514;30.448;2024-03-29T07:14:57;7.45;;;4.25;;
49566;SDS011;35472;50.514;30.448;2024-03-29T07:17:24;5.88;;;3.45;;
49566;SDS011;35472;50.514;30.448;2024-03-29T07:19:49;7.85;;;4.78;;
49566;SDS011;35472;50.514;30.448;2024-03-29T07:22:17;7.22;;;3.50;;
49566;SDS011;35472;50.514;30.448;2024-03-29T07:24:42;8.32;;;4.25;;
49566;SDS011;35472;50.514;30.448;2024-03-29T07:27:10;7.00;;;3.75;;
49566;SDS011;35472;50.514;30.448;2024-03-29T07:29:36;8.57;;;4.50;;
49566;SDS011;35472;50.514;30.448;2024-03-29T07:32:02;10.55;;;4.72;;
49566;SDS011;35472;50.514;30.448;2024-03-29T07:34:28;13.20;;;4.32;;
49566;SDS011;35472;50.514;30.448;2024-03-29T07:36:53;7.65;;;3.85;;
49566;SDS011;35472;50.514;30.448;2024-03-29T07:39:18;10.00;;;4.68;;
49566;SDS011;35472;50.514;30.448;2024-03-29T07:41:45;14.48;;;4.10;;
49566;SDS011;35472;50.514;30.448;2024-03-29T07:44:12;9.98;;;4.65;;
49566;SDS011;35472;50.514;30.448;2024-03-29T07:46:37;9.38;;;4.28;;
49566;SDS011;35472;50.514;30.448;2024-03-29T07:49:04;6.95;;;4.03;;
49566;SDS011;35472;50.514;30.448;2024-03-29T07:51:30;7.07;;;3.58;;
49566;SDS011;35472;50.514;30.448;2024-03-29T07:53:55;7.97;;;3.83;;
49566;SDS011;35472;50.514;30.448;2024-03-29T07:56:21;8.60;;;4.40;;
49566;SDS011;35472;50.514;30.448;2024-03-29T07:58:51;8.27;;;5.47;;
49566;SDS011;35472;50.514;30.448;2024-03-29T08:01:20;10.05;;;5.13;;
49566;SDS011;35472;50.514;30.448;2024-03-29T08:03:47;8.90;;;4.82;;
49566;SDS011;35472;50.514;30.448;2024-03-29T08:06:15;7.68;;;4.57;;
49566;SDS011;35472;50.514;30.448;2024-03-29T08:08:43;7.70;;;4.43;;
49566;SDS011;35472;50.514;30.448;2024-03-29T08:11:09;9.90;;;5.47;;
49566;SDS011;35472;50.514;30.448;2024-03-29T08:13:35;8.63;;;5.00;;
49566;SDS011;35472;50.514;30.448;2024-03-29T08:16:01;9.35;;;4.88;;
49566;SDS011;35472;50.514;30.448;2024-03-29T08:18:27;13.77;;;5.22;;
49566;SDS011;35472;50.514;30.448;2024-03-29T08:20:53;10.43;;;5.28;;
49566;SDS011;35472;50.514;30.448;2024-03-29T08:23:20;10.20;;;6.13;;
49566;SDS011;35472;50.514;30.448;2024-03-29T08:25:46;14.30;;;6.88;;
49566;SDS011;35472;50.514;30.448;2024-03-29T08:28:11;14.18;;;8.35;;
49566;SDS011;35472;50.514;30.448;2024-03-29T08:30:37;18.38;;;8.75;;
49566;SDS011;35472;50.514;30.448;2024-03-29T08:33:04;13.55;;;7.28;;
49566;SDS011;35472;50.514;30.448;2024-03-29T08:35:30;11.85;;;8.20;;
49566;SDS011;35472;50.514;30.448;2024-03-29T08:38:00;14.30;;;9.90;;
49566;SDS011;35472;50.514;30.448;2024-03-29T08:40:27;15.63;;;8.82;;
49566;SDS011;35472;50.514;30.448;2024-03-29T08:42:59;16.98;;;9.02;;
49566;SDS011;35472;50.514;30.448;2024-03-29T08:45:25;14.90;;;9.07;;
49566;SDS011;35472;50.514;30.448;2024-03-29T08:47:50;16.75;;;9.70;;
49566;SDS011;35472;50.514;30.448;2024-03-29T08:50:16;13.93;;;9.15;;
49566;SDS011;35472;50.514;30.448;2024-03-29T08:52:41;13.88;;;8.20;;
49566;SDS011;35472;50.514;30.448;2024-03-29T08:55:10;14.07;;;7.55;;
49566;SDS011;35472;50.514;30.448;2024-03-29T08:57:36;11.32;;;6.00;;
49566;SDS011;35472;50.514;30.448;2024-03-29T09:00:01;13.32;;;7.22;;
49566;SDS011;35472;50.514;30.448;2024-03-29T09:02:28;8.05;;;5.47;;
49566;SDS011;35472;50.514;30.448;2024-03-29T09:04:53;13.60;;;7.65;;
49566;SDS011;35472;50.514;30.448;2024-03-29T09:07:18;15.60;;;6.55;;
49566;SDS011;35472;50.514;30.448;2024-03-29T09:09:44;9.65;;;6.57;;
49566;SDS011;35472;50.514;30.448;2024-03-29T09:12:09;15.52;;;7.45;;
49566;SDS011;35472;50.514;30.448;2024-03-29T09:14:35;14.45;;;9.07;;
49566;SDS011;35472;50.514;30.448;2024-03-29T09:17:00;9.85;;;6.88;;
49566;SDS011;35472;50.514;30.448;2024-03-29T09:19:29;12.27;;;6.68;;
49566;SDS011;35472;50.514;30.448;2024-03-29T09:21:56;13.40;;;6.70;;
49566;SDS011;35472;50.514;30.448;2024-03-29T09:24:21;19.52;;;8.80;;
49566;SDS011;35472;50.514;30.448;2024-03-29T09:26:50;9.13;;;5.68;;
49566;SDS011;35472;50.514;30.448;2024-03-29T09:29:18;8.90;;;6.15;;
49566;SDS011;35472;50.514;30.448;2024-03-29T09:31:45;16.58;;;7.80;;
49566;SDS011;35472;50.514;30.448;2024-03-29T09:34:12;7.72;;;5.40;;
49566;SDS011;35472;50.514;30.448;2024-03-29T09:36:37;12.13;;;6.07;;
49566;SDS011;35472;50.514;30.448;2024-03-29T09:39:03;17.73;;;9.85;;
49566;SDS011;35472;50.514;30.448;2024-03-29T09:41:29;10.82;;;6.95;;
49566;SDS011;35472;50.514;30.448;2024-03-29T09:43:57;12.43;;;8.18;;
49566;SDS011;35472;50.514;30.448;2024-03-29T09:46:25;11.60;;;7.03;;
49566;SDS011;35472;50.514;30.448;2024-03-29T09:48:52;14.25;;;7.35;;
49566;SDS011;35472;50.514;30.448;2024-03-29T09:51:19;12.52;;;7.03;;
49566;SDS011;35472;50.514;30.448;2024-03-29T09:53:48;11.82;;;7.22;;
49566;SDS011;35472;50.514;30.448;2024-03-29T09:56:15;13.13;;;7.40;;
49566;SDS011;35472;50.514;30.448;2024-03-29T09:58:40;13.63;;;8.05;;
49566;SDS011;35472;50.514;30.448;2024-03-29T10:01:06;10.65;;;7.18;;
49566;SDS011;35472;50.514;30.448;2024-03-29T10:03:35;12.13;;;6.95;;
49566;SDS011;35472;50.514;30.448;2024-03-29T10:06:05;10.25;;;7.03;;
49566;SDS011;35472;50.514;30.448;2024-03-29T10:08:33;12.77;;;7.35;;
49566;SDS011;35472;50.514;30.448;2024-03-29T10:11:01;10.25;;;6.25;;
49566;SDS011;35472;50.514;30.448;2024-03-29T10:13:27;13.52;;;9.55;;
49566;SDS011;35472;50.514;30.448;2024-03-29T10:15:53;11.65;;;8.05;;
49566;SDS011;35472;50.514;30.448;2024-03-29T10:18:22;16.00;;;8.32;;
49566;SDS011;35472;50.514;30.448;2024-03-29T10:20:58;14.13;;;6.60;;
49566;SDS011;35472;50.514;30.448;2024-03-29T10:23:24;12.43;;;7.28;;
49566;SDS011;35472;50.514;30.448;2024-03-29T10:25:50;14.93;;;7.93;;
49566;SDS011;35472;50.514;30.448;2024-03-29T10:28:15;14.57;;;8.50;;
49566;SDS011;35472;50.514;30.448;2024-03-29T10:30:45;14.38;;;8.75;;
49566;SDS011;35472;50.514;30.448;2024-03-29T10:33:11;14.40;;;7.95;;
49566;SDS011;35472;50.514;30.448;2024-03-29T10:35:37;18.38;;;8.65;;
49566;SDS011;35472;50.514;30.448;2024-03-29T10:38:06;10.80;;;6.93;;
49566;SDS011;35472;50.514;30.448;2024-03-29T10:40:31;13.45;;;7.68;;
49566;SDS011;35472;50.514;30.448;2024-03-29T10:42:57;14.27;;;7.75;;
49566;SDS011;35472;50.514;30.448;2024-03-29T10:45:25;10.88;;;7.85;;
49566;SDS011;35472;50.514;30.448;2024-03-29T10:47:51;11.88;;;8.45;;
49566;SDS011;35472;50.514;30.448;2024-03-29T10:50:20;15.40;;;9.35;;
49566;SDS011;35472;50.514;30.448;2024-03-29T10:52:46;13.13;;;8.63;;
49566;SDS011;35472;50.514;30.448;2024-03-29T10:55:13;12.05;;;8.18;;
49566;SDS011;35472;50.514;30.448;2024-03-29T10:57:40;14.52;;;7.32;;
49566;SDS011;35472;50.514;30.448;2024-03-29T11:05:21;13.80;;;7.45;;
49566;SDS011;35472;50.514;30.448;2024-03-29T11:07:47;15.10;;;8.52;;
49566;SDS011;35472;50.514;30.448;2024-03-29T11:10:25;13.88;;;9.18;;
49566;SDS011;35472;50.514;30.448;2024-03-29T11:13:00;8.63;;;6.75;;
49566;SDS011;35472;50.514;30.448;2024-03-29T11:15:30;11.65;;;7.43;;
49566;SDS011;35472;50.514;30.448;2024-03-29T11:17:57;9.88;;;7.22;;
49566;SDS011;35472;50.514;30.448;2024-03-29T11:20:26;13.43;;;7.28;;
49566;SDS011;35472;50.514;30.448;2024-03-29T11:23:07;12.07;;;7.75;;
49566;SDS011;35472;50.514;30.448;2024-03-29T11:25:45;10.35;;;6.80;;
49566;SDS011;35472;50.514;30.448;2024-03-29T11:28:21;8.77;;;7.68;;
49566;SDS011;35472;50.514;30.448;2024-03-29T11:30:49;9.77;;;6.10;;
49566;SDS011;35472;50.514;30.448;2024-03-29T11:33:34;9.90;;;6.60;;
49566;SDS011;35472;50.514;30.448;2024-03-29T11:36:17;10.98;;;6.93;;
49566;SDS011;35472;50.514;30.448;2024-03-29T11:38:47;14.27;;;8.25;;
49566;SDS011;35472;50.514;30.448;2024-03-29T11:41:16;10.98;;;7.13;;
49566;SDS011;35472;50.514;30.448;2024-03-29T11:43:43;8.40;;;6.38;;
49566;SDS011;35472;50.514;30.448;2024-03-29T11:46:09;9.45;;;6.63;;
49566;SDS011;35472;50.514;30.448;2024-03-29T11:48:38;8.07;;;6.45;;
49566;SDS011;35472;50.514;30.448;2024-03-29T11:51:04;8.50;;;6.88;;
49566;SDS011;35472;50.514;30.448;2024-03-29T11:53:33;9.95;;;7.18;;
49566;SDS011;35472;50.514;30.448;2024-03-29T11:56:00;7.05;;;6.03;;
49566;SDS011;35472;50.514;30.448;2024-03-29T11:58:31;7.00;;;5.55;;
49566;SDS011;35472;50.514;30.448;2024-03-29T12:00:57;9.60;;;5.50;;
49566;SDS011;35472;50.514;30.448;2024-03-29T12:03:26;6.07;;;4.97;;
49566;SDS011;35472;50.514;30.448;2024-03-29T12:05:53;5.18;;;4.38;;
49566;SDS011;35472;50.514;30.448;2024-03-29T12:08:23;9.70;;;4.78;;
49566;SDS011;35472;50.514;30.448;2024-03-29T12:10:51;6.53;;;4.00;;
49566;SDS011;35472;50.514;30.448;2024-03-29T12:13:16;6.40;;;3.70;;
49566;SDS011;35472;50.514;30.448;2024-03-29T12:15:49;5.15;;;4.65;;
49566;SDS011;35472;50.514;30.448;2024-03-29T12:18:14;5.05;;;4.63;;
49566;SDS011;35472;50.514;30.448;2024-03-29T12:20:41;5.63;;;3.53;;
49566;SDS011;35472;50.514;30.448;2024-03-29T12:23:11;3.60;;;3.30;;
49566;SDS011;35472;50.514;30.448;2024-03-29T12:25:40;3.17;;;2.88;;
49566;SDS011;35472;50.514;30.448;2024-03-29T12:28:06;4.20;;;3.00;;
49566;SDS011;35472;50.514;30.448;2024-03-29T12:30:32;4.22;;;3.25;;
49566;SDS011;35472;50.514;30.448;2024-03-29T12:33:05;4.40;;;4.00;;
49566;SDS011;35472;50.514;30.448;2024-03-29T12:37:59;4.88;;;3.65;;
49566;SDS011;35472;50.514;30.448;2024-03-29T12:40:25;3.85;;;3.30;;
49566;SDS011;35472;50.514;30.448;2024-03-29T12:42:53;3.75;;;3.30;;
49566;SDS011;35472;50.514;30.448;2024-03-29T12:45:19;3.97;;;3.55;;
49566;SDS011;35472;50.514;30.448;2024-03-29T12:47:47;4.63;;;3.65;;
49566;SDS011;35472;50.514;30.448;2024-03-29T12:50:30;3.22;;;2.92;;
49566;SDS011;35472;50.514;30.448;2024-03-29T12:53:00;4.05;;;3.63;;
49566;SDS011;35472;50.514;30.448;2024-03-29T12:55:31;4.50;;;3.45;;
49566;SDS011;35472;50.514;30.448;2024-03-29T12:57:59;3.75;;;3.30;;
49566;SDS011;35472;50.514;30.448;2024-03-29T13:00:25;4.32;;;3.78;;
49566;SDS011;35472;50.514;30.448;2024-03-29T13:02:52;4.25;;;2.83;;
49566;SDS011;35472;50.514;30.448;2024-03-29T13:05:18;2.60;;;2.40;;
49566;SDS011;35472;50.514;30.448;2024-03-29T13:07:44;3.42;;;2.30;;
49566;SDS011;35472;50.514;30.448;2024-03-29T13:10:10;4.78;;;2.75;;
49566;SDS011;35472;50.514;30.448;2024-03-29T13:12:41;2.78;;;1.85;;
49566;SDS011;35472;50.514;30.448;2024-03-29T13:15:20;2.03;;;1.83;;
49566;SDS011;35472;50.514;30.448;2024-03-29T13:17:49;3.25;;;2.33;;
49566;SDS011;35472;50.514;30.448;2024-03-29T13:20:15;1.85;;;1.50;;
49566;SDS011;35472;50.514;30.448;2024-03-29T13:22:41;4.13;;;2.05;;
49566;SDS011;35472;50.514;30.448;2024-03-29T13:25:11;2.55;;;2.08;;
49566;SDS011;35472;50.514;30.448;2024-03-29T13:27:38;2.22;;;2.03;;
49566;SDS011;35472;50.514;30.448;2024-03-29T13:30:07;2.30;;;1.80;;
49566;SDS011;35472;50.514;30.448;2024-03-29T13:32:36;3.60;;;1.90;;
49566;SDS011;35472;50.514;30.448;2024-03-29T13:35:03;2.03;;;1.80;;
49566;SDS011;35472;50.514;30.448;2024-03-29T13:37:44;2.67;;;2.22;;
49566;SDS011;35472;50.514;30.448;2024-03-29T13:40:13;2.08;;;1.77;;
49566;SDS011;35472;50.514;30.448;2024-03-29T13:42:39;1.98;;;1.58;;
49566;SDS011;35472;50.514;30.448;2024-03-29T13:45:05;2.58;;;2.10;;
49566;SDS011;35472;50.514;30.448;2024-03-29T13:47:35;2.28;;;1.90;;
49566;SDS011;35472;50.514;30.448;2024-03-29T13:50:02;2.53;;;1.83;;
49566;SDS011;35472;50.514;30.448;2024-03-29T13:52:27;2.25;;;1.75;;
49566;SDS011;35472;50.514;30.448;2024-03-29T13:54:53;3.22;;;1.90;;
49566;SDS011;35472;50.514;30.448;2024-03-29T13:57:19;4.63;;;2.00;;
49566;SDS011;35472;50.514;30.448;2024-03-29T13:59:47;1.40;;;1.13;;
49566;SDS011;35472;50.514;30.448;2024-03-29T14:02:16;2.15;;;1.40;;
49566;SDS011;35472;50.514;30.448;2024-03-29T14:04:46;1.38;;;1.10;;
49566;SDS011;35472;50.514;30.448;2024-03-29T14:07:12;1.85;;;1.60;;
49566;SDS011;35472;50.514;30.448;2024-03-29T14:09:39;1.27;;;1.15;;
49566;SDS011;35472;50.514;30.448;2024-03-29T14:12:06;2.90;;;1.48;;
49566;SDS011;35472;50.514;30.448;2024-03-29T14:14:31;2.85;;;1.25;;
49566;SDS011;35472;50.514;30.448;2024-03-29T14:16:57;2.80;;;1.33;;
49566;SDS011;35472;50.514;30.448;2024-03-29T14:19:23;1.48;;;1.30;;
49566;SDS011;35472;50.514;30.448;2024-03-29T14:21:49;2.13;;;1.67;;
49566;SDS011;35472;50.514;30.448;2024-03-29T14:24:14;2.42;;;1.33;;
49566;SDS011;35472;50.514;30.448;2024-03-29T14:26:40;1.35;;;1.23;;
49566;SDS011;35472;50.514;30.448;2024-03-29T14:29:07;1.67;;;1.10;;
49566;SDS011;35472;50.514;30.448;2024-03-29T14:31:33;1.50;;;1.15;;
49566;SDS011;35472;50.514;30.448;2024-03-29T14:33:59;1.40;;;0.77;;
49566;SDS011;35472;50.514;30.448;2024-03-29T14:36:24;1.92;;;1.42;;